sensor_id;sensor_type;location;lat;lon;timestamp;P1;durP1;ratioP1;P2;durP2;ratioP2
48751;SDS011;34544;48.836;9.174;2023-03-13T00:01:23;12.75;;;4.03;;
48751;SDS011;34544;48.836;9.174;2023-03-13T00:03:50;6.57;;;2.67;;
48751;SDS011;34544;48.836;9.174;2023-03-13T00:06:16;14.27;;;4.30;;
48751;SDS011;34544;48.836;9.174;2023-03-13T00:08:43;8.50;;;3.03;;
48751;SDS011;34544;48.836;9.174;2023-03-13T00:11:09;8.48;;;3.08;;
48751;SDS011;34544;48.836;9.174;2023-03-13T00:13:36;13.70;;;3.35;;
48751;SDS011;34544;48.836;9.174;2023-03-13T00:16:08;20.27;;;3.35;;
48751;SDS011;34544;48.836;9.174;2023-03-13T00:18:36;8.93;;;2.58;;
48751;SDS011;34544;48.836;9.174;2023-03-13T00:21:03;9.10;;;3.05;;
48751;SDS011;34544;48.836;9.174;2023-03-13T00:23:31;13.85;;;4.25;;
48751;SDS011;34544;48.836;9.174;2023-03-13T00:25:59;11.10;;;3.90;;
48751;SDS011;34544;48.836;9.174;2023-03-13T00:28:29;12.65;;;3.83;;
48751;SDS011;34544;48.836;9.174;2023-03-13T00:31:08;8.73;;;3.45;;
48751;SDS011;34544;48.836;9.174;2023-03-13T00:33:40;7.32;;;3.03;;
48751;SDS011;34544;48.836;9.174;2023-03-13T00:36:09;12.35;;;3.58;;
48751;SDS011;34544;48.836;9.174;2023-03-13T00:38:37;8.32;;;2.85;;
48751;SDS011;34544;48.836;9.174;2023-03-13T00:41:04;9.35;;;3.40;;
48751;SDS011;34544;48.836;9.174;2023-03-13T00:43:31;13.02;;;3.78;;
48751;SDS011;34544;48.836;9.174;2023-03-13T00:45:58;13.18;;;3.10;;
48751;SDS011;34544;48.836;9.174;2023-03-13T00:48:24;12.23;;;3.70;;
48751;SDS011;34544;48.836;9.174;2023-03-13T00:50:50;11.57;;;3.58;;
48751;SDS011;34544;48.836;9.174;2023-03-13T00:53:16;16.73;;;3.85;;
48751;SDS011;34544;48.836;9.174;2023-03-13T00:55:51;13.98;;;4.47;;
48751;SDS011;34544;48.836;9.174;2023-03-13T00:58:19;13.95;;;3.72;;
48751;SDS011;34544;48.836;9.174;2023-03-13T01:00:44;11.23;;;2.95;;
48751;SDS011;34544;48.836;9.174;2023-03-13T01:03:11;10.30;;;3.88;;
48751;SDS011;34544;48.836;9.174;2023-03-13T01:05:36;12.40;;;4.05;;
48751;SDS011;34544;48.836;9.174;2023-03-13T01:08:02;12.98;;;4.15;;
48751;SDS011;34544;48.836;9.174;2023-03-13T01:10:27;10.25;;;4.35;;
48751;SDS011;34544;48.836;9.174;2023-03-13T01:12:53;11.07;;;3.25;;
48751;SDS011;34544;48.836;9.174;2023-03-13T01:15:19;6.57;;;3.63;;
48751;SDS011;34544;48.836;9.174;2023-03-13T01:17:46;11.93;;;3.17;;
48751;SDS011;34544;48.836;9.174;2023-03-13T01:20:12;13.05;;;3.92;;
48751;SDS011;34544;48.836;9.174;2023-03-13T01:22:38;11.73;;;3.42;;
48751;SDS011;34544;48.836;9.174;2023-03-13T01:25:03;15.27;;;3.63;;
48751;SDS011;34544;48.836;9.174;2023-03-13T01:27:30;8.75;;;2.85;;
48751;SDS011;34544;48.836;9.174;2023-03-13T01:29:56;13.73;;;3.45;;
48751;SDS011;34544;48.836;9.174;2023-03-13T01:32:21;18.00;;;3.90;;
48751;SDS011;34544;48.836;9.174;2023-03-13T01:34:47;10.13;;;3.00;;
48751;SDS011;34544;48.836;9.174;2023-03-13T01:37:12;8.63;;;2.78;;
48751;SDS011;34544;48.836;9.174;2023-03-13T01:39:38;12.02;;;3.28;;
48751;SDS011;34544;48.836;9.174;2023-03-13T01:42:04;6.53;;;3.17;;
48751;SDS011;34544;48.836;9.174;2023-03-13T01:44:47;10.13;;;3.05;;
48751;SDS011;34544;48.836;9.174;2023-03-13T01:47:17;12.40;;;3.35;;
48751;SDS011;34544;48.836;9.174;2023-03-13T01:50:02;10.32;;;3.00;;
48751;SDS011;34544;48.836;9.174;2023-03-13T01:52:48;12.60;;;3.15;;
48751;SDS011;34544;48.836;9.174;2023-03-13T01:55:19;10.73;;;3.42;;
48751;SDS011;34544;48.836;9.174;2023-03-13T01:57:48;12.63;;;3.95;;
48751;SDS011;34544;48.836;9.174;2023-03-13T02:00:22;10.95;;;2.95;;
48751;SDS011;34544;48.836;9.174;2023-03-13T02:02:50;6.95;;;2.00;;
48751;SDS011;34544;48.836;9.174;2023-03-13T02:05:19;12.80;;;2.92;;
48751;SDS011;34544;48.836;9.174;2023-03-13T02:07:53;6.00;;;2.28;;
48751;SDS011;34544;48.836;9.174;2023-03-13T02:10:21;9.10;;;2.85;;
48751;SDS011;34544;48.836;9.174;2023-03-13T02:12:48;16.35;;;2.83;;
48751;SDS011;34544;48.836;9.174;2023-03-13T02:15:17;5.85;;;2.75;;
48751;SDS011;34544;48.836;9.174;2023-03-13T02:17:45;12.15;;;3.20;;
48751;SDS011;34544;48.836;9.174;2023-03-13T02:20:13;14.65;;;2.47;;
48751;SDS011;34544;48.836;9.174;2023-03-13T02:25:43;10.95;;;2.88;;
48751;SDS011;34544;48.836;9.174;2023-03-13T02:28:21;12.45;;;2.47;;
48751;SDS011;34544;48.836;9.174;2023-03-13T02:30:58;10.65;;;2.40;;
48751;SDS011;34544;48.836;9.174;2023-03-13T02:33:25;12.00;;;2.17;;
48751;SDS011;34544;48.836;9.174;2023-03-13T02:35:54;10.80;;;3.25;;
48751;SDS011;34544;48.836;9.174;2023-03-13T02:38:25;10.18;;;2.67;;
48751;SDS011;34544;48.836;9.174;2023-03-13T02:40:53;11.23;;;3.37;;
48751;SDS011;34544;48.836;9.174;2023-03-13T02:46:05;10.38;;;3.10;;
48751;SDS011;34544;48.836;9.174;2023-03-13T02:48:37;6.78;;;1.77;;
48751;SDS011;34544;48.836;9.174;2023-03-13T02:51:07;11.30;;;2.60;;
48751;SDS011;34544;48.836;9.174;2023-03-13T02:53:45;10.38;;;2.08;;
48751;SDS011;34544;48.836;9.174;2023-03-13T02:56:13;7.43;;;2.22;;
48751;SDS011;34544;48.836;9.174;2023-03-13T02:58:41;8.60;;;2.10;;
48751;SDS011;34544;48.836;9.174;2023-03-13T03:01:08;5.60;;;2.17;;
48751;SDS011;34544;48.836;9.174;2023-03-13T03:03:36;7.68;;;1.85;;
48751;SDS011;34544;48.836;9.174;2023-03-13T03:06:03;8.75;;;2.88;;
48751;SDS011;34544;48.836;9.174;2023-03-13T03:08:29;5.72;;;1.58;;
48751;SDS011;34544;48.836;9.174;2023-03-13T03:10:57;11.23;;;2.53;;
48751;SDS011;34544;48.836;9.174;2023-03-13T03:13:23;8.25;;;1.42;;
48751;SDS011;34544;48.836;9.174;2023-03-13T03:15:48;5.45;;;1.35;;
48751;SDS011;34544;48.836;9.174;2023-03-13T03:18:14;9.55;;;2.72;;
48751;SDS011;34544;48.836;9.174;2023-03-13T03:20:40;5.72;;;1.60;;
48751;SDS011;34544;48.836;9.174;2023-03-13T03:23:06;5.78;;;1.38;;
48751;SDS011;34544;48.836;9.174;2023-03-13T03:25:32;5.60;;;3.10;;
48751;SDS011;34544;48.836;9.174;2023-03-13T03:27:57;11.52;;;2.22;;
48751;SDS011;34544;48.836;9.174;2023-03-13T03:30:24;7.07;;;1.20;;
48751;SDS011;34544;48.836;9.174;2023-03-13T03:32:50;3.38;;;1.13;;
48751;SDS011;34544;48.836;9.174;2023-03-13T03:35:16;9.43;;;1.85;;
48751;SDS011;34544;48.836;9.174;2023-03-13T03:37:42;8.20;;;1.70;;
48751;SDS011;34544;48.836;9.174;2023-03-13T03:40:08;11.45;;;2.50;;
48751;SDS011;34544;48.836;9.174;2023-03-13T03:42:35;5.25;;;1.40;;
48751;SDS011;34544;48.836;9.174;2023-03-13T03:45:01;5.85;;;1.23;;
48751;SDS011;34544;48.836;9.174;2023-03-13T03:47:27;6.43;;;1.30;;
48751;SDS011;34544;48.836;9.174;2023-03-13T03:49:53;6.63;;;1.38;;
48751;SDS011;34544;48.836;9.174;2023-03-13T03:52:19;7.28;;;1.67;;
48751;SDS011;34544;48.836;9.174;2023-03-13T03:54:45;3.03;;;1.05;;
48751;SDS011;34544;48.836;9.174;2023-03-13T03:57:12;6.20;;;1.58;;
48751;SDS011;34544;48.836;9.174;2023-03-13T03:59:41;10.45;;;1.13;;
48751;SDS011;34544;48.836;9.174;2023-03-13T04:02:08;6.25;;;1.30;;
48751;SDS011;34544;48.836;9.174;2023-03-13T04:04:34;2.35;;;0.98;;
48751;SDS011;34544;48.836;9.174;2023-03-13T04:07:05;3.40;;;1.13;;
48751;SDS011;34544;48.836;9.174;2023-03-13T04:09:31;7.95;;;2.08;;
48751;SDS011;34544;48.836;9.174;2023-03-13T04:11:59;6.40;;;1.73;;
48751;SDS011;34544;48.836;9.174;2023-03-13T04:14:25;4.57;;;1.70;;
48751;SDS011;34544;48.836;9.174;2023-03-13T04:16:51;7.00;;;2.17;;
48751;SDS011;34544;48.836;9.174;2023-03-13T04:19:17;5.57;;;1.98;;
48751;SDS011;34544;48.836;9.174;2023-03-13T04:21:43;9.45;;;2.50;;
48751;SDS011;34544;48.836;9.174;2023-03-13T04:24:13;4.07;;;2.00;;
48751;SDS011;34544;48.836;9.174;2023-03-13T04:26:40;2.50;;;1.40;;
48751;SDS011;34544;48.836;9.174;2023-03-13T04:29:06;4.10;;;1.02;;
48751;SDS011;34544;48.836;9.174;2023-03-13T04:31:52;1.30;;;0.70;;
48751;SDS011;34544;48.836;9.174;2023-03-13T04:34:37;1.55;;;0.47;;
48751;SDS011;34544;48.836;9.174;2023-03-13T04:37:25;6.45;;;1.27;;
48751;SDS011;34544;48.836;9.174;2023-03-13T04:40:15;2.80;;;1.00;;
48751;SDS011;34544;48.836;9.174;2023-03-13T04:42:54;1.25;;;0.50;;
48751;SDS011;34544;48.836;9.174;2023-03-13T04:45:42;2.78;;;1.40;;
48751;SDS011;34544;48.836;9.174;2023-03-13T04:48:25;2.67;;;0.57;;
48751;SDS011;34544;48.836;9.174;2023-03-13T04:51:10;0.60;;;0.50;;
48751;SDS011;34544;48.836;9.174;2023-03-13T04:54:05;4.65;;;0.73;;
48751;SDS011;34544;48.836;9.174;2023-03-13T04:56:49;1.33;;;0.50;;
48751;SDS011;34544;48.836;9.174;2023-03-13T04:59:33;2.88;;;0.60;;
48751;SDS011;34544;48.836;9.174;2023-03-13T05:02:24;3.85;;;0.75;;
48751;SDS011;34544;48.836;9.174;2023-03-13T05:05:09;0.75;;;0.30;;
48751;SDS011;34544;48.836;9.174;2023-03-13T05:07:53;1.38;;;0.60;;
48751;SDS011;34544;48.836;9.174;2023-03-13T05:10:30;1.02;;;0.73;;
48751;SDS011;34544;48.836;9.174;2023-03-13T05:13:24;1.02;;;0.60;;
48751;SDS011;34544;48.836;9.174;2023-03-13T05:15:49;0.75;;;0.40;;
48751;SDS011;34544;48.836;9.174;2023-03-13T05:18:21;4.10;;;0.85;;
48751;SDS011;34544;48.836;9.174;2023-03-13T05:21:05;0.17;;;0.10;;
48751;SDS011;34544;48.836;9.174;2023-03-13T05:23:50;0.60;;;0.40;;
48751;SDS011;34544;48.836;9.174;2023-03-13T05:26:31;2.30;;;0.60;;
48751;SDS011;34544;48.836;9.174;2023-03-13T05:29:06;15.50;;;1.02;;
48751;SDS011;34544;48.836;9.174;2023-03-13T05:31:47;0.60;;;0.40;;
48751;SDS011;34544;48.836;9.174;2023-03-13T05:34:27;0.77;;;0.40;;
48751;SDS011;34544;48.836;9.174;2023-03-13T05:37:25;1.50;;;0.52;;
48751;SDS011;34544;48.836;9.174;2023-03-13T05:40:11;1.52;;;0.65;;
48751;SDS011;34544;48.836;9.174;2023-03-13T05:42:46;1.52;;;0.40;;
48751;SDS011;34544;48.836;9.174;2023-03-13T05:45:30;1.48;;;0.30;;
48751;SDS011;34544;48.836;9.174;2023-03-13T05:48:06;1.80;;;0.57;;
48751;SDS011;34544;48.836;9.174;2023-03-13T05:50:54;2.40;;;0.22;;
48751;SDS011;34544;48.836;9.174;2023-03-13T05:53:35;2.22;;;0.60;;
48751;SDS011;34544;48.836;9.174;2023-03-13T05:56:08;1.50;;;0.40;;
48751;SDS011;34544;48.836;9.174;2023-03-13T05:58:48;0.75;;;0.30;;
48751;SDS011;34544;48.836;9.174;2023-03-13T06:01:32;0.70;;;0.40;;
48751;SDS011;34544;48.836;9.174;2023-03-13T06:04:06;1.25;;;0.57;;
48751;SDS011;34544;48.836;9.174;2023-03-13T06:06:34;1.23;;;0.45;;
48751;SDS011;34544;48.836;9.174;2023-03-13T06:09:00;0.30;;;0.30;;
48751;SDS011;34544;48.836;9.174;2023-03-13T06:11:29;0.75;;;0.70;;
48751;SDS011;34544;48.836;9.174;2023-03-13T06:13:55;0.88;;;0.35;;
48751;SDS011;34544;48.836;9.174;2023-03-13T06:16:35;2.20;;;0.55;;
48751;SDS011;34544;48.836;9.174;2023-03-13T06:19:13;0.47;;;0.30;;
48751;SDS011;34544;48.836;9.174;2023-03-13T06:21:39;1.17;;;0.40;;
48751;SDS011;34544;48.836;9.174;2023-03-13T06:24:04;1.40;;;0.40;;
48751;SDS011;34544;48.836;9.174;2023-03-13T06:26:30;2.30;;;0.40;;
48751;SDS011;34544;48.836;9.174;2023-03-13T06:28:56;1.50;;;0.50;;
48751;SDS011;34544;48.836;9.174;2023-03-13T06:31:22;0.52;;;0.30;;
48751;SDS011;34544;48.836;9.174;2023-03-13T06:33:51;1.80;;;0.55;;
48751;SDS011;34544;48.836;9.174;2023-03-13T06:36:20;1.00;;;0.40;;
48751;SDS011;34544;48.836;9.174;2023-03-13T06:38:47;1.42;;;0.57;;
48751;SDS011;34544;48.836;9.174;2023-03-13T06:41:12;2.97;;;0.43;;
48751;SDS011;34544;48.836;9.174;2023-03-13T06:43:38;0.28;;;0.20;;
48751;SDS011;34544;48.836;9.174;2023-03-13T06:46:05;0.55;;;0.40;;
48751;SDS011;34544;48.836;9.174;2023-03-13T06:48:31;0.55;;;0.50;;
48751;SDS011;34544;48.836;9.174;2023-03-13T06:50:57;0.65;;;0.40;;
48751;SDS011;34544;48.836;9.174;2023-03-13T06:53:22;0.63;;;0.30;;
48751;SDS011;34544;48.836;9.174;2023-03-13T06:55:48;2.45;;;1.40;;
48751;SDS011;34544;48.836;9.174;2023-03-13T06:58:14;1.02;;;0.32;;
48751;SDS011;34544;48.836;9.174;2023-03-13T07:00:40;0.93;;;0.40;;
48751;SDS011;34544;48.836;9.174;2023-03-13T07:03:08;0.32;;;0.32;;
48751;SDS011;34544;48.836;9.174;2023-03-13T07:05:38;0.70;;;0.30;;
48751;SDS011;34544;48.836;9.174;2023-03-13T07:08:04;0.30;;;0.30;;
48751;SDS011;34544;48.836;9.174;2023-03-13T07:10:29;0.28;;;0.28;;
48751;SDS011;34544;48.836;9.174;2023-03-13T07:12:55;0.57;;;0.50;;
48751;SDS011;34544;48.836;9.174;2023-03-13T07:15:21;1.05;;;0.40;;
48751;SDS011;34544;48.836;9.174;2023-03-13T07:17:47;0.57;;;0.35;;
48751;SDS011;34544;48.836;9.174;2023-03-13T07:20:13;1.75;;;0.20;;
48751;SDS011;34544;48.836;9.174;2023-03-13T07:22:39;2.92;;;0.68;;
48751;SDS011;34544;48.836;9.174;2023-03-13T07:25:04;0.60;;;0.38;;
48751;SDS011;34544;48.836;9.174;2023-03-13T07:27:31;3.20;;;0.45;;
48751;SDS011;34544;48.836;9.174;2023-03-13T07:29:57;0.40;;;0.40;;
48751;SDS011;34544;48.836;9.174;2023-03-13T07:32:22;0.75;;;0.32;;
48751;SDS011;34544;48.836;9.174;2023-03-13T07:34:48;0.45;;;0.28;;
48751;SDS011;34544;48.836;9.174;2023-03-13T07:37:14;0.20;;;0.20;;
48751;SDS011;34544;48.836;9.174;2023-03-13T07:39:41;0.77;;;0.30;;
48751;SDS011;34544;48.836;9.174;2023-03-13T07:42:10;2.47;;;0.50;;
48751;SDS011;34544;48.836;9.174;2023-03-13T07:44:38;0.45;;;0.35;;
48751;SDS011;34544;48.836;9.174;2023-03-13T07:47:04;2.92;;;0.40;;
48751;SDS011;34544;48.836;9.174;2023-03-13T07:49:30;3.63;;;0.30;;
48751;SDS011;34544;48.836;9.174;2023-03-13T07:51:56;0.52;;;0.38;;
48751;SDS011;34544;48.836;9.174;2023-03-13T07:54:22;1.20;;;0.38;;
48751;SDS011;34544;48.836;9.174;2023-03-13T07:56:47;3.80;;;1.10;;
48751;SDS011;34544;48.836;9.174;2023-03-13T07:59:14;1.13;;;0.43;;
48751;SDS011;34544;48.836;9.174;2023-03-13T08:01:40;0.95;;;0.30;;
48751;SDS011;34544;48.836;9.174;2023-03-13T08:04:07;0.63;;;0.50;;
48751;SDS011;34544;48.836;9.174;2023-03-13T08:06:36;0.52;;;0.30;;
48751;SDS011;34544;48.836;9.174;2023-03-13T08:09:03;3.13;;;0.43;;
48751;SDS011;34544;48.836;9.174;2023-03-13T08:11:29;1.63;;;0.38;;
48751;SDS011;34544;48.836;9.174;2023-03-13T08:13:55;0.82;;;0.28;;
48751;SDS011;34544;48.836;9.174;2023-03-13T08:16:22;0.98;;;0.52;;
48751;SDS011;34544;48.836;9.174;2023-03-13T08:18:54;0.28;;;0.28;;
48751;SDS011;34544;48.836;9.174;2023-03-13T08:21:24;3.20;;;0.38;;
48751;SDS011;34544;48.836;9.174;2023-03-13T08:23:55;1.75;;;0.40;;
48751;SDS011;34544;48.836;9.174;2023-03-13T08:26:23;3.50;;;1.85;;
48751;SDS011;34544;48.836;9.174;2023-03-13T08:28:52;0.98;;;0.40;;
48751;SDS011;34544;48.836;9.174;2023-03-13T08:31:23;3.95;;;0.52;;
48751;SDS011;34544;48.836;9.174;2023-03-13T08:33:50;0.50;;;0.40;;
48751;SDS011;34544;48.836;9.174;2023-03-13T08:36:18;2.20;;;0.50;;
48751;SDS011;34544;48.836;9.174;2023-03-13T08:38:46;2.47;;;0.50;;
48751;SDS011;34544;48.836;9.174;2023-03-13T08:41:15;0.45;;;0.45;;
48751;SDS011;34544;48.836;9.174;2023-03-13T08:43:43;0.63;;;0.50;;
48751;SDS011;34544;48.836;9.174;2023-03-13T08:46:09;2.58;;;0.50;;
48751;SDS011;34544;48.836;9.174;2023-03-13T08:48:35;1.00;;;0.20;;
48751;SDS011;34544;48.836;9.174;2023-03-13T08:51:01;1.63;;;0.50;;
48751;SDS011;34544;48.836;9.174;2023-03-13T08:53:27;1.67;;;0.52;;
48751;SDS011;34544;48.836;9.174;2023-03-13T08:55:53;1.08;;;0.60;;
48751;SDS011;34544;48.836;9.174;2023-03-13T08:58:19;1.15;;;0.50;;
48751;SDS011;34544;48.836;9.174;2023-03-13T09:00:45;1.23;;;0.40;;
48751;SDS011;34544;48.836;9.174;2023-03-13T09:03:10;1.27;;;1.00;;
48751;SDS011;34544;48.836;9.174;2023-03-13T09:05:36;0.75;;;0.60;;
48751;SDS011;34544;48.836;9.174;2023-03-13T09:08:03;1.25;;;0.50;;
48751;SDS011;34544;48.836;9.174;2023-03-13T09:10:28;5.53;;;0.80;;
48751;SDS011;34544;48.836;9.174;2023-03-13T09:12:56;3.20;;;0.70;;
48751;SDS011;34544;48.836;9.174;2023-03-13T09:15:22;1.58;;;0.50;;
48751;SDS011;34544;48.836;9.174;2023-03-13T09:17:48;0.93;;;0.52;;
48751;SDS011;34544;48.836;9.174;2023-03-13T09:20:13;1.48;;;0.60;;
48751;SDS011;34544;48.836;9.174;2023-03-13T09:22:39;2.15;;;1.27;;
48751;SDS011;34544;48.836;9.174;2023-03-13T09:25:05;1.33;;;0.60;;
48751;SDS011;34544;48.836;9.174;2023-03-13T09:27:31;0.80;;;0.60;;
48751;SDS011;34544;48.836;9.174;2023-03-13T09:29:56;1.42;;;0.70;;
48751;SDS011;34544;48.836;9.174;2023-03-13T09:32:22;1.98;;;0.65;;
48751;SDS011;34544;48.836;9.174;2023-03-13T09:34:49;0.98;;;0.43;;
48751;SDS011;34544;48.836;9.174;2023-03-13T09:37:14;1.02;;;0.55;;
48751;SDS011;34544;48.836;9.174;2023-03-13T09:39:40;0.60;;;0.30;;
48751;SDS011;34544;48.836;9.174;2023-03-13T09:42:09;4.25;;;0.65;;
48751;SDS011;34544;48.836;9.174;2023-03-13T09:45:01;1.05;;;0.55;;
48751;SDS011;34544;48.836;9.174;2023-03-13T09:47:33;0.63;;;0.60;;
48751;SDS011;34544;48.836;9.174;2023-03-13T09:50:28;2.58;;;1.00;;
48751;SDS011;34544;48.836;9.174;2023-03-13T09:52:56;2.35;;;0.60;;
48751;SDS011;34544;48.836;9.174;2023-03-13T09:55:29;1.85;;;0.80;;
48751;SDS011;34544;48.836;9.174;2023-03-13T09:58:07;1.40;;;0.73;;
48751;SDS011;34544;48.836;9.174;2023-03-13T10:01:01;2.43;;;1.07;;
48751;SDS011;34544;48.836;9.174;2023-03-13T10:03:38;0.80;;;0.68;;
48751;SDS011;34544;48.836;9.174;2023-03-13T10:06:18;3.55;;;0.70;;
48751;SDS011;34544;48.836;9.174;2023-03-13T10:08:45;0.70;;;0.60;;
48751;SDS011;34544;48.836;9.174;2023-03-13T10:11:24;2.75;;;1.02;;
48751;SDS011;34544;48.836;9.174;2023-03-13T10:14:04;1.42;;;0.47;;
48751;SDS011;34544;48.836;9.174;2023-03-13T10:16:43;1.08;;;0.85;;
48751;SDS011;34544;48.836;9.174;2023-03-13T10:19:18;3.03;;;1.15;;
48751;SDS011;34544;48.836;9.174;2023-03-13T10:21:52;1.40;;;0.68;;
48751;SDS011;34544;48.836;9.174;2023-03-13T10:24:26;5.30;;;1.17;;
48751;SDS011;34544;48.836;9.174;2023-03-13T10:26:57;3.15;;;0.60;;
48751;SDS011;34544;48.836;9.174;2023-03-13T10:29:25;0.75;;;0.70;;
48751;SDS011;34544;48.836;9.174;2023-03-13T10:31:56;1.25;;;0.60;;
48751;SDS011;34544;48.836;9.174;2023-03-13T10:37:14;1.25;;;0.60;;
48751;SDS011;34544;48.836;9.174;2023-03-13T10:39:41;0.75;;;0.55;;
48751;SDS011;34544;48.836;9.174;2023-03-13T10:42:07;2.78;;;0.70;;
48751;SDS011;34544;48.836;9.174;2023-03-13T10:44:54;4.03;;;0.80;;
48751;SDS011;34544;48.836;9.174;2023-03-13T10:47:24;2.53;;;0.80;;
48751;SDS011;34544;48.836;9.174;2023-03-13T10:49:54;3.70;;;0.90;;
48751;SDS011;34544;48.836;9.174;2023-03-13T10:52:28;5.00;;;1.05;;
48751;SDS011;34544;48.836;9.174;2023-03-13T10:55:01;2.15;;;1.10;;
48751;SDS011;34544;48.836;9.174;2023-03-13T10:57:36;4.07;;;1.00;;
48751;SDS011;34544;48.836;9.174;2023-03-13T11:00:04;1.13;;;0.65;;
48751;SDS011;34544;48.836;9.174;2023-03-13T11:02:56;2.63;;;0.98;;
48751;SDS011;34544;48.836;9.174;2023-03-13T11:07:52;3.28;;;1.13;;
48751;SDS011;34544;48.836;9.174;2023-03-13T11:12:53;2.03;;;1.23;;
48751;SDS011;34544;48.836;9.174;2023-03-13T11:18:18;1.08;;;0.90;;
48751;SDS011;34544;48.836;9.174;2023-03-13T11:20:46;1.92;;;0.68;;
48751;SDS011;34544;48.836;9.174;2023-03-13T11:23:21;2.30;;;0.90;;
48751;SDS011;34544;48.836;9.174;2023-03-13T11:26:14;4.10;;;1.00;;
48751;SDS011;34544;48.836;9.174;2023-03-13T11:31:45;3.72;;;0.90;;
48751;SDS011;34544;48.836;9.174;2023-03-13T11:36:54;3.15;;;0.77;;
48751;SDS011;34544;48.836;9.174;2023-03-13T11:39:37;4.07;;;1.10;;
48751;SDS011;34544;48.836;9.174;2023-03-13T11:48:13;1.55;;;0.68;;
48751;SDS011;34544;48.836;9.174;2023-03-13T11:53:42;2.40;;;1.08;;
48751;SDS011;34544;48.836;9.174;2023-03-13T11:56:40;1.40;;;1.02;;
48751;SDS011;34544;48.836;9.174;2023-03-13T11:59:16;3.38;;;0.85;;
48751;SDS011;34544;48.836;9.174;2023-03-13T12:02:23;0.90;;;0.68;;
48751;SDS011;34544;48.836;9.174;2023-03-13T12:05:02;1.25;;;0.65;;
48751;SDS011;34544;48.836;9.174;2023-03-13T12:17:43;3.50;;;0.85;;
48751;SDS011;34544;48.836;9.174;2023-03-13T12:20:24;2.33;;;0.82;;
48751;SDS011;34544;48.836;9.174;2023-03-13T12:26:05;1.23;;;0.55;;
48751;SDS011;34544;48.836;9.174;2023-03-13T12:28:47;1.25;;;0.77;;
48751;SDS011;34544;48.836;9.174;2023-03-13T12:31:30;0.55;;;0.55;;
48751;SDS011;34544;48.836;9.174;2023-03-13T12:34:17;0.98;;;0.63;;
48751;SDS011;34544;48.836;9.174;2023-03-13T12:36:56;1.00;;;0.63;;
48751;SDS011;34544;48.836;9.174;2023-03-13T12:39:44;0.63;;;0.60;;
48751;SDS011;34544;48.836;9.174;2023-03-13T12:42:22;1.35;;;0.50;;
48751;SDS011;34544;48.836;9.174;2023-03-13T12:45:13;2.47;;;0.80;;
48751;SDS011;34544;48.836;9.174;2023-03-13T12:47:53;1.25;;;0.50;;
48751;SDS011;34544;48.836;9.174;2023-03-13T12:50:33;1.85;;;0.80;;
48751;SDS011;34544;48.836;9.174;2023-03-13T12:53:16;3.45;;;0.70;;
48751;SDS011;34544;48.836;9.174;2023-03-13T12:59:03;1.73;;;0.80;;
48751;SDS011;34544;48.836;9.174;2023-03-13T13:01:53;2.47;;;0.90;;
48751;SDS011;34544;48.836;9.174;2023-03-13T13:04:26;4.60;;;0.85;;
48751;SDS011;34544;48.836;9.174;2023-03-13T13:07:05;3.53;;;1.02;;
48751;SDS011;34544;48.836;9.174;2023-03-13T13:09:58;0.75;;;0.50;;
48751;SDS011;34544;48.836;9.174;2023-03-13T13:12:33;0.60;;;0.52;;
48751;SDS011;34544;48.836;9.174;2023-03-13T13:15:04;1.83;;;0.63;;
48751;SDS011;34544;48.836;9.174;2023-03-13T13:17:46;2.40;;;0.65;;
48751;SDS011;34544;48.836;9.174;2023-03-13T13:20:36;1.85;;;0.47;;
48751;SDS011;34544;48.836;9.174;2023-03-13T13:25:51;1.13;;;0.50;;
48751;SDS011;34544;48.836;9.174;2023-03-13T13:30:48;1.67;;;0.50;;
48751;SDS011;34544;48.836;9.174;2023-03-13T13:35:43;3.47;;;0.80;;
48751;SDS011;34544;48.836;9.174;2023-03-13T13:43:33;3.72;;;0.52;;
48751;SDS011;34544;48.836;9.174;2023-03-13T13:49:05;1.88;;;0.52;;
48751;SDS011;34544;48.836;9.174;2023-03-13T13:51:39;1.60;;;0.55;;
48751;SDS011;34544;48.836;9.174;2023-03-13T13:56:46;1.15;;;0.50;;
48751;SDS011;34544;48.836;9.174;2023-03-13T14:01:47;5.10;;;0.60;;
48751;SDS011;34544;48.836;9.174;2023-03-13T14:04:16;1.85;;;0.80;;
48751;SDS011;34544;48.836;9.174;2023-03-13T14:06:51;1.90;;;0.47;;
48751;SDS011;34544;48.836;9.174;2023-03-13T14:12:29;4.80;;;0.63;;
48751;SDS011;34544;48.836;9.174;2023-03-13T14:15:08;2.58;;;0.60;;
48751;SDS011;34544;48.836;9.174;2023-03-13T14:20:19;1.55;;;0.85;;
48751;SDS011;34544;48.836;9.174;2023-03-13T14:25:12;1.70;;;0.55;;
48751;SDS011;34544;48.836;9.174;2023-03-13T14:27:44;1.60;;;0.60;;
48751;SDS011;34544;48.836;9.174;2023-03-13T14:30:13;0.50;;;0.50;;
48751;SDS011;34544;48.836;9.174;2023-03-13T14:32:40;3.22;;;0.95;;
48751;SDS011;34544;48.836;9.174;2023-03-13T14:35:07;0.73;;;0.40;;
48751;SDS011;34544;48.836;9.174;2023-03-13T14:40:20;2.28;;;0.75;;
48751;SDS011;34544;48.836;9.174;2023-03-13T14:42:55;2.92;;;0.60;;
48751;SDS011;34544;48.836;9.174;2023-03-13T14:47:50;0.93;;;0.57;;
48751;SDS011;34544;48.836;9.174;2023-03-13T14:50:17;4.95;;;0.80;;
48751;SDS011;34544;48.836;9.174;2023-03-13T14:52:54;1.63;;;0.70;;
48751;SDS011;34544;48.836;9.174;2023-03-13T14:55:29;1.33;;;0.50;;
48751;SDS011;34544;48.836;9.174;2023-03-13T15:00:42;1.77;;;0.68;;
48751;SDS011;34544;48.836;9.174;2023-03-13T15:08:36;1.40;;;0.77;;
48751;SDS011;34544;48.836;9.174;2023-03-13T15:16:56;0.40;;;0.32;;
48751;SDS011;34544;48.836;9.174;2023-03-13T15:19:21;2.25;;;0.60;;
48751;SDS011;34544;48.836;9.174;2023-03-13T15:21:49;1.88;;;0.60;;
48751;SDS011;34544;48.836;9.174;2023-03-13T15:24:16;1.42;;;0.60;;
48751;SDS011;34544;48.836;9.174;2023-03-13T15:26:42;1.70;;;1.25;;
48751;SDS011;34544;48.836;9.174;2023-03-13T15:29:09;1.80;;;0.80;;
48751;SDS011;34544;48.836;9.174;2023-03-13T15:31:35;1.40;;;0.63;;
48751;SDS011;34544;48.836;9.174;2023-03-13T15:34:01;2.15;;;1.02;;
48751;SDS011;34544;48.836;9.174;2023-03-13T15:36:27;1.00;;;0.60;;
48751;SDS011;34544;48.836;9.174;2023-03-13T15:38:54;4.60;;;1.00;;
48751;SDS011;34544;48.836;9.174;2023-03-13T15:41:21;2.13;;;0.70;;
48751;SDS011;34544;48.836;9.174;2023-03-13T15:43:47;2.38;;;0.60;;
48751;SDS011;34544;48.836;9.174;2023-03-13T15:46:17;2.65;;;0.60;;
48751;SDS011;34544;48.836;9.174;2023-03-13T15:48:44;1.50;;;0.50;;
48751;SDS011;34544;48.836;9.174;2023-03-13T15:51:11;3.67;;;1.10;;
48751;SDS011;34544;48.836;9.174;2023-03-13T15:53:39;1.30;;;0.50;;
48751;SDS011;34544;48.836;9.174;2023-03-13T15:56:15;0.70;;;0.60;;
48751;SDS011;34544;48.836;9.174;2023-03-13T15:58:44;2.80;;;0.85;;
48751;SDS011;34544;48.836;9.174;2023-03-13T16:01:11;3.55;;;0.80;;
48751;SDS011;34544;48.836;9.174;2023-03-13T16:03:37;2.45;;;0.73;;
48751;SDS011;34544;48.836;9.174;2023-03-13T16:06:09;1.67;;;0.70;;
48751;SDS011;34544;48.836;9.174;2023-03-13T16:08:38;1.77;;;0.50;;
48751;SDS011;34544;48.836;9.174;2023-03-13T16:11:04;1.90;;;1.17;;
48751;SDS011;34544;48.836;9.174;2023-03-13T16:13:30;0.98;;;0.60;;
48751;SDS011;34544;48.836;9.174;2023-03-13T16:15:55;3.03;;;0.70;;
48751;SDS011;34544;48.836;9.174;2023-03-13T16:18:22;2.20;;;0.95;;
48751;SDS011;34544;48.836;9.174;2023-03-13T16:20:50;2.13;;;0.80;;
48751;SDS011;34544;48.836;9.174;2023-03-13T16:23:16;1.05;;;0.75;;
48751;SDS011;34544;48.836;9.174;2023-03-13T16:25:45;1.60;;;0.90;;
48751;SDS011;34544;48.836;9.174;2023-03-13T16:28:12;0.88;;;0.57;;
48751;SDS011;34544;48.836;9.174;2023-03-13T16:30:39;2.15;;;1.10;;
48751;SDS011;34544;48.836;9.174;2023-03-13T16:33:08;2.28;;;0.60;;
48751;SDS011;34544;48.836;9.174;2023-03-13T16:35:34;2.00;;;0.68;;
48751;SDS011;34544;48.836;9.174;2023-03-13T16:38:00;0.60;;;0.60;;
48751;SDS011;34544;48.836;9.174;2023-03-13T16:40:28;3.00;;;1.10;;
48751;SDS011;34544;48.836;9.174;2023-03-13T16:42:55;1.05;;;0.60;;
48751;SDS011;34544;48.836;9.174;2023-03-13T16:45:21;2.45;;;0.70;;